sensor_id;sensor_type;location;lat;lon;timestamp;pressure;altitude;pressure_sealevel;temperature;humidity
57000;BME280;42891;50.006;21.964;2022-10-17T00:00:58;100080.16;;;14.32;67.18
57000;BME280;42891;50.006;21.964;2022-10-17T00:04:58;100092.34;;;14.35;67.48
57000;BME280;42891;50.006;21.964;2022-10-17T00:08:59;100077.34;;;14.33;67.37
57000;BME280;42891;50.006;21.964;2022-10-17T00:12:59;100079.69;;;14.27;67.52
57000;BME280;42891;50.006;21.964;2022-10-17T00:16:59;100088.97;;;14.32;67.38
57000;BME280;42891;50.006;21.964;2022-10-17T00:20:59;100064.72;;;13.95;68.34
57000;BME280;42891;50.006;21.964;2022-10-17T00:25:00;100084.88;;;13.97;68.50
57000;BME280;42891;50.006;21.964;2022-10-17T00:29:00;100092.00;;;13.97;68.61
57000;BME280;42891;50.006;21.964;2022-10-17T00:33:00;100105.97;;;13.99;68.67
57000;BME280;42891;50.006;21.964;2022-10-17T00:37:01;100105.22;;;14.08;68.45
57000;BME280;42891;50.006;21.964;2022-10-17T00:41:02;100108.00;;;14.07;68.33
57000;BME280;42891;50.006;21.964;2022-10-17T00:45:14;100094.63;;;13.87;68.86
57000;BME280;42891;50.006;21.964;2022-10-17T00:49:14;100090.00;;;13.89;68.95
57000;BME280;42891;50.006;21.964;2022-10-17T00:53:15;100097.13;;;13.89;69.16
57000;BME280;42891;50.006;21.964;2022-10-17T00:57:17;100111.63;;;13.85;69.47
57000;BME280;42891;50.006;21.964;2022-10-17T01:01:18;100093.31;;;13.81;69.28
57000;BME280;42891;50.006;21.964;2022-10-17T01:05:18;100099.78;;;13.89;69.47
57000;BME280;42891;50.006;21.964;2022-10-17T01:09:19;100094.47;;;13.89;69.31
57000;BME280;42891;50.006;21.964;2022-10-17T01:13:26;100089.75;;;13.71;69.67
57000;BME280;42891;50.006;21.964;2022-10-17T01:21:56;100118.91;;;13.83;69.92
57000;BME280;42891;50.006;21.964;2022-10-17T01:26:20;100105.50;;;13.84;69.88
57000;BME280;42891;50.006;21.964;2022-10-17T01:39:01;100114.28;;;13.85;69.71
57000;BME280;42891;50.006;21.964;2022-10-17T01:43:19;100114.81;;;13.78;69.78
57000;BME280;42891;50.006;21.964;2022-10-17T01:47:24;100121.94;;;13.78;70.09
57000;BME280;42891;50.006;21.964;2022-10-17T01:51:33;100109.94;;;13.62;70.45
57000;BME280;42891;50.006;21.964;2022-10-17T01:55:38;100112.81;;;13.71;70.36
57000;BME280;42891;50.006;21.964;2022-10-17T01:59:41;100115.19;;;13.53;70.83
57000;BME280;42891;50.006;21.964;2022-10-17T02:03:44;100116.13;;;13.52;71.08
57000;BME280;42891;50.006;21.964;2022-10-17T02:07:47;100104.69;;;13.51;70.81
57000;BME280;42891;50.006;21.964;2022-10-17T02:12:14;100112.66;;;13.51;71.19
57000;BME280;42891;50.006;21.964;2022-10-17T02:20:24;100134.34;;;13.56;71.32
57000;BME280;42891;50.006;21.964;2022-10-17T02:32:40;100146.47;;;13.38;71.80
57000;BME280;42891;50.006;21.964;2022-10-17T02:36:50;100142.78;;;13.18;72.17
57000;BME280;42891;50.006;21.964;2022-10-17T02:40:52;100154.94;;;13.09;72.81
57000;BME280;42891;50.006;21.964;2022-10-17T02:44:54;100160.88;;;13.01;73.29
57000;BME280;42891;50.006;21.964;2022-10-17T02:49:01;100163.25;;;13.16;72.88
57000;BME280;42891;50.006;21.964;2022-10-17T02:53:08;100146.88;;;13.10;72.76
57000;BME280;42891;50.006;21.964;2022-10-17T02:57:15;100135.91;;;13.15;72.36
57000;BME280;42891;50.006;21.964;2022-10-17T03:01:17;100142.25;;;13.24;72.24
57000;BME280;42891;50.006;21.964;2022-10-17T03:05:27;100152.63;;;13.16;72.67
57000;BME280;42891;50.006;21.964;2022-10-17T03:09:28;100153.19;;;12.98;73.61
57000;BME280;42891;50.006;21.964;2022-10-17T03:13:29;100168.69;;;13.14;72.66
57000;BME280;42891;50.006;21.964;2022-10-17T03:17:29;100161.47;;;13.05;73.21
57000;BME280;42891;50.006;21.964;2022-10-17T03:21:29;100145.69;;;13.03;73.10
57000;BME280;42891;50.006;21.964;2022-10-17T03:25:30;100131.84;;;12.77;73.80
57000;BME280;42891;50.006;21.964;2022-10-17T03:29:30;100148.47;;;12.90;73.76
57000;BME280;42891;50.006;21.964;2022-10-17T03:33:30;100150.63;;;12.85;73.54
57000;BME280;42891;50.006;21.964;2022-10-17T03:37:31;100167.78;;;12.92;74.04
57000;BME280;42891;50.006;21.964;2022-10-17T03:41:31;100156.34;;;12.69;74.01
57000;BME280;42891;50.006;21.964;2022-10-17T03:45:31;100153.44;;;12.72;74.09
57000;BME280;42891;50.006;21.964;2022-10-17T03:49:32;100183.06;;;12.77;74.71
57000;BME280;42891;50.006;21.964;2022-10-17T03:53:32;100168.38;;;12.73;74.19
57000;BME280;42891;50.006;21.964;2022-10-17T03:57:34;100181.13;;;12.79;74.24
57000;BME280;42891;50.006;21.964;2022-10-17T04:01:35;100186.81;;;12.75;74.50
57000;BME280;42891;50.006;21.964;2022-10-17T04:05:36;100189.69;;;12.94;74.03
57000;BME280;42891;50.006;21.964;2022-10-17T04:09:36;100185.09;;;12.85;74.06
57000;BME280;42891;50.006;21.964;2022-10-17T04:13:36;100154.03;;;12.76;73.58
57000;BME280;42891;50.006;21.964;2022-10-17T04:17:37;100196.78;;;13.05;73.38
57000;BME280;42891;50.006;21.964;2022-10-17T04:21:37;100194.25;;;13.04;73.37
57000;BME280;42891;50.006;21.964;2022-10-17T04:25:37;100183.91;;;13.01;73.09
57000;BME280;42891;50.006;21.964;2022-10-17T04:29:38;100193.19;;;13.06;72.82
57000;BME280;42891;50.006;21.964;2022-10-17T04:33:39;100207.16;;;13.08;73.08
57000;BME280;42891;50.006;21.964;2022-10-17T04:37:39;100213.41;;;13.07;73.14
57000;BME280;42891;50.006;21.964;2022-10-17T04:41:40;100196.44;;;12.99;73.36
57000;BME280;42891;50.006;21.964;2022-10-17T04:45:40;100188.13;;;12.92;73.03
57000;BME280;42891;50.006;21.964;2022-10-17T04:49:40;100209.06;;;12.95;73.78
57000;BME280;42891;50.006;21.964;2022-10-17T04:53:42;100210.63;;;12.98;73.59
57000;BME280;42891;50.006;21.964;2022-10-17T04:57:42;100207.03;;;12.99;73.39
57000;BME280;42891;50.006;21.964;2022-10-17T05:01:43;100215.81;;;12.99;73.35
57000;BME280;42891;50.006;21.964;2022-10-17T05:05:43;100223.78;;;12.88;73.70
57000;BME280;42891;50.006;21.964;2022-10-17T05:09:43;100228.72;;;12.81;74.12
57000;BME280;42891;50.006;21.964;2022-10-17T05:13:44;100233.44;;;12.66;74.91
57000;BME280;42891;50.006;21.964;2022-10-17T05:17:44;100241.88;;;12.83;74.95
57000;BME280;42891;50.006;21.964;2022-10-17T05:21:44;100240.44;;;12.78;74.51
57000;BME280;42891;50.006;21.964;2022-10-17T05:25:45;100258.34;;;12.64;75.18
57000;BME280;42891;50.006;21.964;2022-10-17T05:29:45;100244.75;;;12.68;74.91
57000;BME280;42891;50.006;21.964;2022-10-17T05:33:45;100253.19;;;12.62;75.12
57000;BME280;42891;50.006;21.964;2022-10-17T05:37:46;100260.88;;;12.65;75.27
57000;BME280;42891;50.006;21.964;2022-10-17T05:41:46;100262.91;;;12.61;75.64
57000;BME280;42891;50.006;21.964;2022-10-17T05:45:46;100271.88;;;12.83;75.01
57000;BME280;42891;50.006;21.964;2022-10-17T05:49:47;100276.09;;;12.86;75.02
57000;BME280;42891;50.006;21.964;2022-10-17T05:53:47;100275.59;;;12.92;75.01
57000;BME280;42891;50.006;21.964;2022-10-17T05:57:48;100269.78;;;12.87;75.12
57000;BME280;42891;50.006;21.964;2022-10-17T06:01:49;100284.28;;;13.05;75.04
57000;BME280;42891;50.006;21.964;2022-10-17T06:05:49;100264.66;;;12.96;74.74
57000;BME280;42891;50.006;21.964;2022-10-17T06:09:50;100287.19;;;13.02;74.90
57000;BME280;42891;50.006;21.964;2022-10-17T06:13:51;100307.31;;;13.16;74.75
57000;BME280;42891;50.006;21.964;2022-10-17T06:17:51;100301.66;;;13.09;75.26
57000;BME280;42891;50.006;21.964;2022-10-17T06:21:51;100304.53;;;13.18;75.11
57000;BME280;42891;50.006;21.964;2022-10-17T06:25:52;100322.16;;;13.30;74.65
57000;BME280;42891;50.006;21.964;2022-10-17T06:29:52;100320.19;;;13.32;75.02
57000;BME280;42891;50.006;21.964;2022-10-17T06:33:52;100318.56;;;13.42;74.54
57000;BME280;42891;50.006;21.964;2022-10-17T06:37:53;100326.75;;;13.51;74.32
57000;BME280;42891;50.006;21.964;2022-10-17T06:41:53;100327.69;;;13.61;74.58
57000;BME280;42891;50.006;21.964;2022-10-17T06:45:53;100315.63;;;13.57;74.00
57000;BME280;42891;50.006;21.964;2022-10-17T06:49:53;100305.81;;;13.69;73.98
57000;BME280;42891;50.006;21.964;2022-10-17T06:53:56;100312.34;;;13.76;74.08
57000;BME280;42891;50.006;21.964;2022-10-17T06:57:56;100329.44;;;13.94;73.79
57000;BME280;42891;50.006;21.964;2022-10-17T07:01:57;100328.59;;;13.94;73.33
57000;BME280;42891;50.006;21.964;2022-10-17T07:05:57;100334.00;;;14.04;72.58
57000;BME280;42891;50.006;21.964;2022-10-17T07:09:58;100331.88;;;14.19;72.22
57000;BME280;42891;50.006;21.964;2022-10-17T07:13:58;100344.66;;;14.25;72.07
57000;BME280;42891;50.006;21.964;2022-10-17T07:17:59;100351.28;;;14.30;71.73
57000;BME280;42891;50.006;21.964;2022-10-17T07:21:59;100356.19;;;14.46;71.44
57000;BME280;42891;50.006;21.964;2022-10-17T07:26:00;100349.50;;;14.52;70.80
57000;BME280;42891;50.006;21.964;2022-10-17T07:30:01;100341.97;;;14.57;71.25
57000;BME280;42891;50.006;21.964;2022-10-17T07:34:01;100352.34;;;14.72;71.16
57000;BME280;42891;50.006;21.964;2022-10-17T07:38:02;100351.44;;;14.82;69.76
57000;BME280;42891;50.006;21.964;2022-10-17T07:42:02;100344.41;;;14.81;69.54
57000;BME280;42891;50.006;21.964;2022-10-17T07:46:04;100355.56;;;14.96;69.43
57000;BME280;42891;50.006;21.964;2022-10-17T07:50:05;100355.69;;;14.95;68.86
57000;BME280;42891;50.006;21.964;2022-10-17T07:54:06;100383.88;;;15.07;68.99
57000;BME280;42891;50.006;21.964;2022-10-17T07:58:07;100374.44;;;15.14;69.24
57000;BME280;42891;50.006;21.964;2022-10-17T08:02:19;100383.03;;;15.28;68.69
57000;BME280;42891;50.006;21.964;2022-10-17T08:06:20;100375.63;;;15.31;68.96
57000;BME280;42891;50.006;21.964;2022-10-17T08:10:21;100380.69;;;15.34;68.48
57000;BME280;42891;50.006;21.964;2022-10-17T08:14:26;100364.47;;;15.47;68.73
57000;BME280;42891;50.006;21.964;2022-10-17T08:18:27;100367.75;;;15.61;68.97
57000;BME280;42891;50.006;21.964;2022-10-17T08:22:27;100364.50;;;15.57;68.27
57000;BME280;42891;50.006;21.964;2022-10-17T08:26:28;100365.72;;;15.74;68.46
57000;BME280;42891;50.006;21.964;2022-10-17T08:30:28;100361.81;;;15.78;68.32
57000;BME280;42891;50.006;21.964;2022-10-17T08:34:29;100373.34;;;15.89;67.49
57000;BME280;42891;50.006;21.964;2022-10-17T08:38:30;100357.66;;;15.95;67.44
57000;BME280;42891;50.006;21.964;2022-10-17T08:46:40;100369.75;;;16.29;66.95
57000;BME280;42891;50.006;21.964;2022-10-17T08:50:51;100350.53;;;16.25;66.58
57000;BME280;42891;50.006;21.964;2022-10-17T08:54:53;100353.03;;;16.36;66.31
57000;BME280;42891;50.006;21.964;2022-10-17T08:58:53;100381.69;;;16.64;65.78
57000;BME280;42891;50.006;21.964;2022-10-17T09:20:23;100370.69;;;17.16;65.04
57000;BME280;42891;50.006;21.964;2022-10-17T09:24:58;100386.38;;;17.29;63.46
57000;BME280;42891;50.006;21.964;2022-10-17T09:28:59;100376.09;;;17.34;63.18
57000;BME280;42891;50.006;21.964;2022-10-17T09:33:09;100370.31;;;17.38;63.01
57000;BME280;42891;50.006;21.964;2022-10-17T09:37:12;100370.88;;;17.42;62.64
57000;BME280;42891;50.006;21.964;2022-10-17T09:41:25;100379.47;;;17.64;61.93
57000;BME280;42891;50.006;21.964;2022-10-17T09:45:28;100373.44;;;17.62;61.64
57000;BME280;42891;50.006;21.964;2022-10-17T09:49:36;100380.22;;;17.94;62.27
57000;BME280;42891;50.006;21.964;2022-10-17T09:53:39;100374.72;;;17.95;62.58
57000;BME280;42891;50.006;21.964;2022-10-17T09:57:57;100379.53;;;18.10;60.11
57000;BME280;42891;50.006;21.964;2022-10-17T10:02:18;100366.41;;;18.16;59.77
57000;BME280;42891;50.006;21.964;2022-10-17T10:06:19;100374.13;;;18.37;60.05
57000;BME280;42891;50.006;21.964;2022-10-17T10:10:26;100366.78;;;18.39;58.97
57000;BME280;42891;50.006;21.964;2022-10-17T10:14:33;100378.84;;;18.62;57.76
57000;BME280;42891;50.006;21.964;2022-10-17T10:18:34;100381.59;;;18.70;58.41
57000;BME280;42891;50.006;21.964;2022-10-17T10:22:35;100339.88;;;18.59;58.39
57000;BME280;42891;50.006;21.964;2022-10-17T10:26:43;100366.91;;;18.92;57.67
57000;BME280;42891;50.006;21.964;2022-10-17T10:30:48;100344.72;;;18.82;56.39
57000;BME280;42891;50.006;21.964;2022-10-17T10:35:00;100368.84;;;19.08;56.34
57000;BME280;42891;50.006;21.964;2022-10-17T10:39:01;100361.97;;;19.05;56.88
57000;BME280;42891;50.006;21.964;2022-10-17T10:43:03;100343.66;;;19.19;57.52
57000;BME280;42891;50.006;21.964;2022-10-17T10:47:06;100356.81;;;19.38;56.60
57000;BME280;42891;50.006;21.964;2022-10-17T10:51:11;100360.34;;;19.47;55.51
57000;BME280;42891;50.006;21.964;2022-10-17T10:55:19;100361.88;;;19.50;55.27
57000;BME280;42891;50.006;21.964;2022-10-17T10:59:31;100351.03;;;19.59;55.57
57000;BME280;42891;50.006;21.964;2022-10-17T11:03:40;100349.38;;;19.67;55.13
57000;BME280;42891;50.006;21.964;2022-10-17T11:07:57;100346.03;;;19.65;53.98
57000;BME280;42891;50.006;21.964;2022-10-17T11:12:04;100356.13;;;19.79;54.77
57000;BME280;42891;50.006;21.964;2022-10-17T11:20:19;100343.63;;;20.04;53.94
57000;BME280;42891;50.006;21.964;2022-10-17T11:24:39;100328.09;;;20.24;53.60
57000;BME280;42891;50.006;21.964;2022-10-17T11:28:43;100327.06;;;20.50;52.64
57000;BME280;42891;50.006;21.964;2022-10-17T11:32:48;100316.66;;;21.53;50.19
57000;BME280;42891;50.006;21.964;2022-10-17T11:36:59;100315.78;;;22.61;47.04
57000;BME280;42891;50.006;21.964;2022-10-17T11:41:03;100326.16;;;23.99;44.38
57000;BME280;42891;50.006;21.964;2022-10-17T11:45:12;100316.81;;;24.45;41.87
57000;BME280;42891;50.006;21.964;2022-10-17T11:49:18;100315.63;;;25.11;40.98
57000;BME280;42891;50.006;21.964;2022-10-17T11:53:23;100311.94;;;26.15;38.72
57000;BME280;42891;50.006;21.964;2022-10-17T11:57:43;100324.81;;;26.20;37.60
57000;BME280;42891;50.006;21.964;2022-10-17T12:01:50;100331.09;;;26.47;37.19
57000;BME280;42891;50.006;21.964;2022-10-17T12:18:35;100319.97;;;27.29;35.34
57000;BME280;42891;50.006;21.964;2022-10-17T12:22:35;100328.00;;;27.63;34.57
57000;BME280;42891;50.006;21.964;2022-10-17T12:26:35;100334.81;;;27.72;34.43
57000;BME280;42891;50.006;21.964;2022-10-17T12:30:36;100320.25;;;27.98;34.03
57000;BME280;42891;50.006;21.964;2022-10-17T12:34:52;100315.53;;;27.87;34.58
57000;BME280;42891;50.006;21.964;2022-10-17T12:51:19;100303.97;;;29.43;31.03
57000;BME280;42891;50.006;21.964;2022-10-17T12:55:23;100317.47;;;29.80;31.09
57000;BME280;42891;50.006;21.964;2022-10-17T12:59:25;100314.22;;;29.41;31.00
57000;BME280;42891;50.006;21.964;2022-10-17T13:03:30;100302.97;;;29.86;30.91
57000;BME280;42891;50.006;21.964;2022-10-17T13:07:33;100316.19;;;30.13;30.47
57000;BME280;42891;50.006;21.964;2022-10-17T13:11:38;100309.47;;;30.39;30.01
57000;BME280;42891;50.006;21.964;2022-10-17T13:15:38;100304.19;;;30.68;29.67
57000;BME280;42891;50.006;21.964;2022-10-17T13:19:42;100293.88;;;29.92;30.28
57000;BME280;42891;50.006;21.964;2022-10-17T13:23:43;100288.13;;;30.24;29.88
57000;BME280;42891;50.006;21.964;2022-10-17T13:27:44;100306.22;;;30.73;29.74
57000;BME280;42891;50.006;21.964;2022-10-17T13:31:53;100303.25;;;30.51;29.29
57000;BME280;42891;50.006;21.964;2022-10-17T13:35:54;100302.06;;;30.70;29.52
57000;BME280;42891;50.006;21.964;2022-10-17T13:39:54;100293.06;;;30.04;29.93
57000;BME280;42891;50.006;21.964;2022-10-17T13:43:56;100292.53;;;30.37;29.85
57000;BME280;42891;50.006;21.964;2022-10-17T13:48:00;100287.59;;;29.92;30.16
57000;BME280;42891;50.006;21.964;2022-10-17T13:52:02;100293.31;;;30.02;30.46
57000;BME280;42891;50.006;21.964;2022-10-17T13:56:19;100272.38;;;28.86;31.28
57000;BME280;42891;50.006;21.964;2022-10-17T14:00:31;100258.09;;;28.72;32.27
57000;BME280;42891;50.006;21.964;2022-10-17T14:04:32;100267.22;;;28.02;32.08
57000;BME280;42891;50.006;21.964;2022-10-17T14:08:33;100274.34;;;27.97;33.31
57000;BME280;42891;50.006;21.964;2022-10-17T14:12:33;100260.31;;;28.32;32.88
57000;BME280;42891;50.006;21.964;2022-10-17T14:16:37;100261.50;;;27.40;34.03
57000;BME280;42891;50.006;21.964;2022-10-17T14:20:38;100247.34;;;26.59;35.50
57000;BME280;42891;50.006;21.964;2022-10-17T14:24:40;100256.09;;;26.08;36.59
57000;BME280;42891;50.006;21.964;2022-10-17T14:28:45;100266.88;;;25.88;37.12
57000;BME280;42891;50.006;21.964;2022-10-17T14:32:46;100269.78;;;25.79;37.75
57000;BME280;42891;50.006;21.964;2022-10-17T14:36:50;100262.81;;;25.43;38.11
57000;BME280;42891;50.006;21.964;2022-10-17T14:40:56;100265.34;;;24.75;39.92
57000;BME280;42891;50.006;21.964;2022-10-17T14:45:05;100266.09;;;24.62;40.52
57000;BME280;42891;50.006;21.964;2022-10-17T14:49:19;100272.88;;;24.29;41.57
57000;BME280;42891;50.006;21.964;2022-10-17T14:53:21;100258.91;;;23.97;41.97
57000;BME280;42891;50.006;21.964;2022-10-17T14:57:22;100273.25;;;23.83;42.92
57000;BME280;42891;50.006;21.964;2022-10-17T15:01:23;100260.34;;;23.78;42.91
57000;BME280;42891;50.006;21.964;2022-10-17T15:05:23;100250.00;;;23.60;43.67
57000;BME280;42891;50.006;21.964;2022-10-17T15:09:24;100240.44;;;23.43;43.91
57000;BME280;42891;50.006;21.964;2022-10-17T15:13:27;100255.50;;;23.52;44.45
57000;BME280;42891;50.006;21.964;2022-10-17T15:17:29;100264.31;;;23.46;44.85
57000;BME280;42891;50.006;21.964;2022-10-17T15:21:30;100261.69;;;23.16;45.96
57000;BME280;42891;50.006;21.964;2022-10-17T15:25:30;100269.66;;;23.09;46.49
57000;BME280;42891;50.006;21.964;2022-10-17T15:29:31;100274.78;;;22.89;46.75
57000;BME280;42891;50.006;21.964;2022-10-17T15:33:31;100270.00;;;22.46;47.41
57000;BME280;42891;50.006;21.964;2022-10-17T15:37:32;100264.91;;;22.52;48.23
57000;BME280;42891;50.006;21.964;2022-10-17T15:41:33;100271.19;;;22.44;48.67
57000;BME280;42891;50.006;21.964;2022-10-17T15:45:33;100268.78;;;22.26;48.84
57000;BME280;42891;50.006;21.964;2022-10-17T15:49:34;100275.50;;;22.07;49.80
57000;BME280;42891;50.006;21.964;2022-10-17T15:53:35;100292.66;;;22.06;50.22
57000;BME280;42891;50.006;21.964;2022-10-17T15:57:39;100291.34;;;21.78;50.61
57000;BME280;42891;50.006;21.964;2022-10-17T16:01:40;100293.56;;;21.67;50.87
57000;BME280;42891;50.006;21.964;2022-10-17T16:05:41;100300.03;;;21.49;51.67
57000;BME280;42891;50.006;21.964;2022-10-17T16:09:41;100299.78;;;21.27;52.33
57000;BME280;42891;50.006;21.964;2022-10-17T16:13:44;100299.16;;;21.17;52.35
57000;BME280;42891;50.006;21.964;2022-10-17T16:17:51;100310.75;;;21.09;52.67
57000;BME280;42891;50.006;21.964;2022-10-17T16:21:52;100301.94;;;20.84;53.05
57000;BME280;42891;50.006;21.964;2022-10-17T16:25:52;100292.03;;;20.68;53.36
57000;BME280;42891;50.006;21.964;2022-10-17T16:29:53;100281.16;;;20.37;53.24
57000;BME280;42891;50.006;21.964;2022-10-17T16:33:54;100299.25;;;20.26;53.71
57000;BME280;42891;50.006;21.964;2022-10-17T16:37:55;100283.16;;;20.18;54.40
57000;BME280;42891;50.006;21.964;2022-10-17T16:41:56;100296.25;;;20.13;54.84
57000;BME280;42891;50.006;21.964;2022-10-17T16:45:57;100295.25;;;20.06;55.03
57000;BME280;42891;50.006;21.964;2022-10-17T16:49:57;100296.53;;;19.85;55.57
57000;BME280;42891;50.006;21.964;2022-10-17T16:53:57;100307.88;;;19.79;55.49
57000;BME280;42891;50.006;21.964;2022-10-17T16:57:59;100293.41;;;19.55;55.26
57000;BME280;42891;50.006;21.964;2022-10-17T17:02:00;100290.91;;;19.54;55.38
57000;BME280;42891;50.006;21.964;2022-10-17T17:06:00;100284.41;;;19.22;55.82
57000;BME280;42891;50.006;21.964;2022-10-17T17:10:01;100279.75;;;19.32;55.53
57000;BME280;42891;50.006;21.964;2022-10-17T17:14:02;100295.69;;;19.34;56.09
57000;BME280;42891;50.006;21.964;2022-10-17T17:18:03;100300.22;;;19.07;56.83
57000;BME280;42891;50.006;21.964;2022-10-17T17:22:03;100295.81;;;18.89;56.50
57000;BME280;42891;50.006;21.964;2022-10-17T17:26:08;100307.59;;;19.05;57.44
57000;BME280;42891;50.006;21.964;2022-10-17T17:30:09;100305.72;;;18.79;56.87
57000;BME280;42891;50.006;21.964;2022-10-17T17:34:09;100299.69;;;18.51;57.00
57000;BME280;42891;50.006;21.964;2022-10-17T17:38:10;100305.28;;;18.39;57.59
57000;BME280;42891;50.006;21.964;2022-10-17T17:42:10;100299.41;;;18.36;58.19
57000;BME280;42891;50.006;21.964;2022-10-17T17:46:11;100297.03;;;18.33;57.76
57000;BME280;42891;50.006;21.964;2022-10-17T17:50:12;100290.25;;;18.38;57.60
57000;BME280;42891;50.006;21.964;2022-10-17T17:54:13;100297.03;;;18.33;57.63
57000;BME280;42891;50.006;21.964;2022-10-17T17:58:13;100286.06;;;18.00;58.90
57000;BME280;42891;50.006;21.964;2022-10-17T18:02:13;100292.47;;;18.07;58.49
57000;BME280;42891;50.006;21.964;2022-10-17T18:06:14;100256.16;;;17.96;58.98
57000;BME280;42891;50.006;21.964;2022-10-17T18:10:15;100281.97;;;17.78;59.40
57000;BME280;42891;50.006;21.964;2022-10-17T18:14:16;100295.69;;;17.93;59.07
57000;BME280;42891;50.006;21.964;2022-10-17T18:18:18;100293.41;;;17.70;59.83
57000;BME280;42891;50.006;21.964;2022-10-17T18:22:18;100285.66;;;17.49;60.40
57000;BME280;42891;50.006;21.964;2022-10-17T18:26:19;100287.00;;;17.35;60.58
57000;BME280;42891;50.006;21.964;2022-10-17T18:30:19;100283.13;;;17.47;60.48
57000;BME280;42891;50.006;21.964;2022-10-17T18:34:19;100284.66;;;17.50;60.36
57000;BME280;42891;50.006;21.964;2022-10-17T18:38:19;100275.03;;;17.39;60.13
57000;BME280;42891;50.006;21.964;2022-10-17T18:42:20;100250.41;;;16.90;61.38
57000;BME280;42891;50.006;21.964;2022-10-17T18:46:25;100278.34;;;17.23;61.34
57000;BME280;42891;50.006;21.964;2022-10-17T18:50:26;100261.72;;;17.29;61.01
57000;BME280;42891;50.006;21.964;2022-10-17T18:54:26;100276.09;;;17.28;61.08
57000;BME280;42891;50.006;21.964;2022-10-17T18:58:28;100265.69;;;17.25;60.85
57000;BME280;42891;50.006;21.964;2022-10-17T19:02:28;100287.09;;;17.15;61.71
57000;BME280;42891;50.006;21.964;2022-10-17T19:06:30;100277.69;;;17.11;61.89
57000;BME280;42891;50.006;21.964;2022-10-17T19:10:32;100270.19;;;16.97;62.21
57000;BME280;42891;50.006;21.964;2022-10-17T19:14:32;100282.69;;;16.96;62.22
57000;BME280;42891;50.006;21.964;2022-10-17T19:18:33;100282.06;;;17.12;61.72
57000;BME280;42891;50.006;21.964;2022-10-17T19:22:34;100275.56;;;16.67;62.95
57000;BME280;42891;50.006;21.964;2022-10-17T19:26:35;100285.81;;;16.72;63.03
57000;BME280;42891;50.006;21.964;2022-10-17T19:30:36;100288.44;;;16.92;62.15
57000;BME280;42891;50.006;21.964;2022-10-17T19:34:36;100292.78;;;16.93;62.14
57000;BME280;42891;50.006;21.964;2022-10-17T19:38:36;100275.88;;;16.54;62.90
57000;BME280;42891;50.006;21.964;2022-10-17T19:42:37;100293.09;;;16.90;62.73
57000;BME280;42891;50.006;21.964;2022-10-17T19:46:37;100298.69;;;16.77;62.69
57000;BME280;42891;50.006;21.964;2022-10-17T19:50:42;100304.44;;;16.92;62.71
57000;BME280;42891;50.006;21.964;2022-10-17T19:54:43;100310.75;;;16.81;63.02
57000;BME280;42891;50.006;21.964;2022-10-17T19:58:46;100288.50;;;16.62;62.75
57000;BME280;42891;50.006;21.964;2022-10-17T20:02:47;100300.25;;;16.69;62.70
57000;BME280;42891;50.006;21.964;2022-10-17T20:06:47;100285.56;;;16.46;63.21
57000;BME280;42891;50.006;21.964;2022-10-17T20:10:48;100305.63;;;16.50;63.12
57000;BME280;42891;50.006;21.964;2022-10-17T20:14:48;100280.84;;;16.10;64.29
57000;BME280;42891;50.006;21.964;2022-10-17T20:18:49;100294.56;;;16.25;64.25
57000;BME280;42891;50.006;21.964;2022-10-17T20:22:50;100284.72;;;15.87;65.49
57000;BME280;42891;50.006;21.964;2022-10-17T20:26:50;100287.69;;;15.93;65.43
57000;BME280;42891;50.006;21.964;2022-10-17T20:30:50;100275.38;;;15.92;65.64
57000;BME280;42891;50.006;21.964;2022-10-17T20:34:51;100272.00;;;15.90;65.30
57000;BME280;42891;50.006;21.964;2022-10-17T20:38:53;100280.06;;;15.59;66.21
57000;BME280;42891;50.006;21.964;2022-10-17T20:42:54;100282.09;;;15.96;65.18
57000;BME280;42891;50.006;21.964;2022-10-17T20:46:54;100278.72;;;15.94;65.02
57000;BME280;42891;50.006;21.964;2022-10-17T20:50:54;100265.69;;;15.81;65.33
57000;BME280;42891;50.006;21.964;2022-10-17T20:54:55;100276.47;;;15.90;65.15
57000;BME280;42891;50.006;21.964;2022-10-17T20:59:15;100270.28;;;15.79;65.53
57000;BME280;42891;50.006;21.964;2022-10-17T21:03:15;100267.38;;;15.82;64.97
57000;BME280;42891;50.006;21.964;2022-10-17T21:07:15;100259.94;;;15.86;64.90
57000;BME280;42891;50.006;21.964;2022-10-17T21:11:19;100270.03;;;15.82;65.10
57000;BME280;42891;50.006;21.964;2022-10-17T21:15:19;100266.81;;;15.89;65.73
57000;BME280;42891;50.006;21.964;2022-10-17T21:19:20;100264.81;;;15.81;65.89
57000;BME280;42891;50.006;21.964;2022-10-17T21:23:20;100244.88;;;15.75;65.79
57000;BME280;42891;50.006;21.964;2022-10-17T21:27:21;100258.91;;;15.77;65.78
57000;BME280;42891;50.006;21.964;2022-10-17T21:31:25;100245.00;;;15.64;66.37
57000;BME280;42891;50.006;21.964;2022-10-17T21:35:26;100250.47;;;15.62;66.10
57000;BME280;42891;50.006;21.964;2022-10-17T21:39:26;100259.31;;;15.63;66.37
57000;BME280;42891;50.006;21.964;2022-10-17T21:43:26;100251.44;;;15.51;66.39
57000;BME280;42891;50.006;21.964;2022-10-17T21:47:26;100248.75;;;15.42;66.65
57000;BME280;42891;50.006;21.964;2022-10-17T21:51:28;100249.16;;;15.27;66.61
57000;BME280;42891;50.006;21.964;2022-10-17T21:55:29;100238.91;;;15.23;66.69
57000;BME280;42891;50.006;21.964;2022-10-17T21:59:29;100256.31;;;15.37;67.19
57000;BME280;42891;50.006;21.964;2022-10-17T22:03:32;100249.53;;;15.23;66.98
57000;BME280;42891;50.006;21.964;2022-10-17T22:07:33;100247.00;;;15.21;66.84